Time;durP1;ratioP1;P1;durP2;ratioP2;P2;SDS_P1;SDS_P2;PMS_P1;PMS_P2;Temp;Humidity;BMP_temperature;BMP_pressure;BME280_temperature;BME280_humidity;BME280_pressure;Samples;Min_cycle;Max_cycle;Signal;HPM_P1;HPM_P2
2021/08/14 00:01:02;;;;;;;9.27;7.57;;;19.30;99.90;;;;;;6243151;28;20199;-71
2021/08/14 00:04:05;;;;;;;8.30;7.50;;;19.30;99.90;;;;;;6260186;28;20196;-72
2021/08/14 00:07:07;;;;;;;6.83;6.23;;;19.30;99.90;;;;;;6245019;28;20207;-72
2021/08/14 00:10:10;;;;;;;6.67;6.10;;;19.30;99.90;;;;;;6248614;28;20696;-72
2021/08/14 00:13:12;;;;;;;7.70;6.80;;;19.30;99.90;;;;;;6249616;28;20555;-71
2021/08/14 00:16:15;;;;;;;8.67;6.93;;;19.30;99.90;;;;;;6249273;28;20227;-72
2021/08/14 00:19:17;;;;;;;8.33;6.50;;;19.30;99.90;;;;;;6248225;28;20667;-71
2021/08/14 00:22:19;;;;;;;7.53;6.63;;;19.20;99.90;;;;;;6249026;28;20199;-71
2021/08/14 00:25:22;;;;;;;10.73;7.43;;;19.20;99.90;;;;;;6264775;28;20199;-71
2021/08/14 00:28:24;;;;;;;7.43;6.73;;;19.20;99.90;;;;;;6249255;28;20230;-70
2021/08/14 00:31:26;;;;;;;8.10;7.30;;;19.10;99.90;;;;;;6247484;28;20231;-71
2021/08/14 00:34:29;;;;;;;7.23;6.53;;;19.10;99.90;;;;;;6248151;28;20188;-71
2021/08/14 00:37:31;;;;;;;9.77;6.80;;;19.10;99.90;;;;;;6248708;28;20188;-70
2021/08/14 00:40:33;;;;;;;8.73;7.30;;;19.10;99.90;;;;;;6248729;28;20200;-71
2021/08/14 00:43:36;;;;;;;7.83;6.73;;;19.10;99.90;;;;;;6247878;28;20228;-71
2021/08/14 00:46:39;;;;;;;7.40;6.70;;;19.10;99.90;;;;;;6263863;28;20208;-71
2021/08/14 00:49:42;;;;;;;9.47;7.50;;;19.10;99.90;;;;;;6247501;28;20647;-71
2021/08/14 00:52:44;;;;;;;8.40;7.33;;;19.10;99.90;;;;;;6247050;28;20597;-71
2021/08/14 00:55:47;;;;;;;7.90;7.20;;;19.10;99.90;;;;;;6248944;28;20198;-71
2021/08/14 00:58:53;;;;;;;9.00;6.70;;;19.00;99.90;;;;;;6263966;28;20196;-73
2021/08/14 01:01:56;;;;;;;8.47;6.93;;;19.00;99.90;;;;;;6247432;28;20683;-72
2021/08/14 01:04:58;;;;;;;7.43;6.83;;;19.00;99.90;;;;;;6247034;28;20583;-72
2021/08/14 01:08:00;;;;;;;9.70;7.47;;;19.00;99.90;;;;;;6247899;28;20212;-71
2021/08/14 01:11:04;;;;;;;8.70;7.60;;;19.00;99.90;;;;;;6248138;28;20204;-71
2021/08/14 01:14:06;;;;;;;8.13;6.73;;;18.90;99.90;;;;;;6263084;28;20537;-71
2021/08/14 01:17:10;;;;;;;9.13;7.40;;;18.90;99.90;;;;;;6263142;28;20723;-71
2021/08/14 01:20:14;;;;;;;8.03;7.17;;;19.00;99.90;;;;;;6247127;28;20338;-72
2021/08/14 01:23:18;;;;;;;8.87;7.67;;;19.00;99.90;;;;;;6262848;28;20548;-72
2021/08/14 01:26:20;;;;;;;7.20;6.53;;;19.00;99.90;;;;;;6263195;28;20200;-71
2021/08/14 01:29:23;;;;;;;6.67;6.07;;;19.00;99.90;;;;;;6247405;28;20195;-72
2021/08/14 01:32:25;;;;;;;7.57;6.63;;;19.00;99.90;;;;;;6247844;28;20226;-71
2021/08/14 01:35:28;;;;;;;7.27;6.50;;;19.10;99.90;;;;;;6247730;28;20634;-71
2021/08/14 01:38:30;;;;;;;7.50;6.23;;;19.10;99.90;;;;;;6247972;28;20202;-71
2021/08/14 01:41:33;;;;;;;7.87;7.03;;;19.10;99.90;;;;;;6246426;28;20247;-71
2021/08/14 01:44:37;;;;;;;8.70;7.10;;;19.10;99.90;;;;;;6247586;28;20269;-72
2021/08/14 01:47:39;;;;;;;7.37;6.67;;;19.20;99.90;;;;;;6247309;28;20713;-72
2021/08/14 01:50:42;;;;;;;8.47;7.10;;;19.20;99.90;;;;;;6245453;28;20216;-72
2021/08/14 01:53:49;;;;;;;8.87;7.33;;;19.20;99.90;;;;;;6247518;28;20640;-72
2021/08/14 01:56:52;;;;;;;9.40;7.20;;;19.20;99.90;;;;;;6246132;28;20660;-71
2021/08/14 01:59:54;;;;;;;8.33;7.50;;;19.20;99.90;;;;;;6262430;28;20616;-72
2021/08/14 02:02:58;;;;;;;7.53;6.83;;;19.30;99.90;;;;;;6245972;28;20200;-71
2021/08/14 02:06:02;;;;;;;8.30;7.10;;;19.30;99.90;;;;;;6262284;28;20279;-72
2021/08/14 02:09:04;;;;;;;8.10;7.30;;;19.40;99.90;;;;;;6262391;28;20185;-70
2021/08/14 02:12:06;;;;;;;8.37;7.57;;;19.40;99.90;;;;;;6245897;28;20691;-71
2021/08/14 02:15:09;;;;;;;11.23;7.57;;;19.50;99.90;;;;;;6245470;28;20200;-71
2021/08/14 02:18:12;;;;;;;9.87;7.70;;;19.50;99.90;;;;;;6246491;28;20231;-71
2021/08/14 02:21:14;;;;;;;8.67;7.43;;;19.60;99.90;;;;;;6245175;28;20674;-71
2021/08/14 02:24:17;;;;;;;9.37;8.07;;;19.60;99.90;;;;;;6246839;28;20681;-69
2021/08/14 02:27:19;;;;;;;10.27;8.47;;;19.60;99.90;;;;;;6245237;28;20231;-71
2021/08/14 02:30:21;;;;;;;10.50;8.80;;;19.70;99.90;;;;;;6244821;28;20194;-71
2021/08/14 02:33:24;;;;;;;15.23;9.80;;;19.60;99.90;;;;;;6245281;28;20671;-73
2021/08/14 02:36:26;;;;;;;13.50;10.00;;;19.60;99.90;;;;;;6246151;28;20622;-71
2021/08/14 02:39:28;;;;;;;19.93;11.50;;;19.50;99.90;;;;;;6244958;28;20729;-73
2021/08/14 02:42:32;;;;;;;18.60;11.43;;;19.60;99.90;;;;;;6246141;28;20203;-71
2021/08/14 02:45:34;;;;;;;17.63;10.70;;;19.60;99.90;;;;;;6246037;28;20208;-71
2021/08/14 02:48:36;;;;;;;24.27;12.57;;;19.70;99.90;;;;;;6244773;28;20231;-71
2021/08/14 02:51:38;;;;;;;11.93;10.23;;;19.80;99.90;;;;;;6245776;28;20203;-71
2021/08/14 02:54:41;;;;;;;12.30;8.70;;;19.90;99.90;;;;;;6244869;28;20196;-72
2021/08/14 02:57:43;;;;;;;16.97;9.83;;;19.90;99.90;;;;;;6261101;28;20667;-72
2021/08/14 03:00:45;;;;;;;11.93;9.77;;;20.00;99.90;;;;;;6244440;28;20570;-72
2021/08/14 03:03:48;;;;;;;19.00;9.73;;;20.00;99.90;;;;;;6244838;28;20200;-72
2021/08/14 03:06:59;;;;;;;12.93;9.83;;;20.00;99.90;;;;;;6244297;28;20289;-72
2021/08/14 03:10:01;;;;;;;11.90;8.97;;;20.00;99.90;;;;;;6244571;28;20185;-72
2021/08/14 03:13:04;;;;;;;10.03;8.07;;;20.00;99.90;;;;;;6245304;28;20184;-72
2021/08/14 03:16:06;;;;;;;20.00;8.93;;;20.00;99.90;;;;;;6245720;28;20306;-71
2021/08/14 03:19:09;;;;;;;15.47;8.60;;;20.00;99.90;;;;;;6245664;28;20382;-72
2021/08/14 03:22:11;;;;;;;10.30;8.83;;;20.00;99.90;;;;;;6243978;28;20207;-72
2021/08/14 03:25:14;;;;;;;12.03;8.60;;;19.90;99.90;;;;;;6245440;28;20670;-71
2021/08/14 03:28:16;;;;;;;13.00;9.23;;;19.90;99.90;;;;;;6244015;28;20227;-72
2021/08/14 03:31:21;;;;;;;10.10;9.10;;;19.90;99.90;;;;;;6245148;28;20196;-72
2021/08/14 03:34:23;;;;;;;9.57;8.13;;;19.90;99.90;;;;;;6244075;28;20199;-72
2021/08/14 03:37:25;;;;;;;12.63;8.33;;;19.90;99.90;;;;;;6244139;28;20210;-71
2021/08/14 03:40:27;;;;;;;10.70;8.53;;;19.90;99.90;;;;;;6260549;28;20227;-71
2021/08/14 03:43:30;;;;;;;9.33;6.93;;;19.90;99.90;;;;;;6260617;28;20195;-72
2021/08/14 03:46:32;;;;;;;8.53;7.73;;;19.90;99.90;;;;;;6244195;28;20585;-71
2021/08/14 03:49:34;;;;;;;8.70;7.80;;;20.00;99.90;;;;;;6227139;28;20188;-71
2021/08/14 03:52:37;;;;;;;8.50;7.27;;;20.00;99.90;;;;;;6245151;28;20192;-72
2021/08/14 03:55:40;;;;;;;9.33;7.07;;;20.00;99.90;;;;;;6245239;28;20202;-71
2021/08/14 03:58:42;;;;;;;8.97;7.13;;;20.10;99.90;;;;;;6243386;28;20204;-71
2021/08/14 04:01:44;;;;;;;9.33;7.53;;;20.10;99.90;;;;;;6244972;28;20231;-71
2021/08/14 04:04:47;;;;;;;10.60;7.67;;;20.10;99.90;;;;;;6243427;28;20199;-72
2021/08/14 04:07:49;;;;;;;12.77;6.97;;;20.10;99.90;;;;;;6245025;28;20325;-72
2021/08/14 04:10:52;;;;;;;8.83;6.90;;;20.10;99.90;;;;;;6244787;28;20188;-72
2021/08/14 04:13:54;;;;;;;9.20;7.30;;;20.00;99.90;;;;;;6243120;28;20660;-72
2021/08/14 04:16:56;;;;;;;8.30;7.07;;;20.00;99.90;;;;;;6243314;28;20239;-72
2021/08/14 04:19:59;;;;;;;8.97;7.17;;;20.00;99.90;;;;;;6244258;28;20204;-72
2021/08/14 04:23:02;;;;;;;7.57;6.77;;;19.90;99.90;;;;;;6243188;28;20192;-71
2021/08/14 04:26:05;;;;;;;12.23;7.10;;;19.90;99.90;;;;;;6244093;28;20192;-72
2021/08/14 04:29:07;;;;;;;7.50;6.80;;;19.80;99.90;;;;;;6242975;28;20275;-72
2021/08/14 04:32:09;;;;;;;7.67;6.30;;;19.80;99.90;;;;;;6243062;28;20291;-72
2021/08/14 04:35:13;;;;;;;7.57;6.43;;;19.80;99.90;;;;;;6242674;28;20517;-72
2021/08/14 04:38:16;;;;;;;7.07;6.37;;;19.80;99.90;;;;;;6259608;28;20280;-72
2021/08/14 04:41:18;;;;;;;6.60;5.90;;;19.90;99.90;;;;;;6259160;28;20200;-72
2021/08/14 04:44:21;;;;;;;6.20;5.60;;;19.90;99.90;;;;;;6242960;28;20287;-72
2021/08/14 04:47:23;;;;;;;6.57;6.07;;;19.90;99.90;;;;;;6242598;28;20216;-71
2021/08/14 04:50:25;;;;;;;6.33;5.77;;;19.90;99.90;;;;;;6243024;28;20188;-72
2021/08/14 04:53:27;;;;;;;5.80;5.30;;;19.90;99.90;;;;;;6242657;28;20558;-72
2021/08/14 04:56:30;;;;;;;6.83;6.23;;;19.90;99.90;;;;;;6247984;28;20192;-72
2021/08/14 04:59:32;;;;;;;5.83;5.20;;;19.90;99.90;;;;;;6247103;28;20184;-72
2021/08/14 05:02:34;;;;;;;5.60;5.10;;;19.90;99.90;;;;;;6248382;28;20212;-72
2021/08/14 05:05:37;;;;;;;6.70;6.03;;;19.90;99.90;;;;;;6248139;28;20204;-72
2021/08/14 05:08:39;;;;;;;6.50;5.90;;;19.90;99.90;;;;;;6248249;28;20704;-72
2021/08/14 05:11:41;;;;;;;7.97;5.67;;;19.90;99.90;;;;;;6247674;28;20195;-72
2021/08/14 05:14:43;;;;;;;7.03;5.70;;;20.00;99.90;;;;;;6248039;28;20565;-72
2021/08/14 05:17:46;;;;;;;7.27;6.23;;;20.00;99.90;;;;;;6246563;28;20260;-72
2021/08/14 05:20:48;;;;;;;7.90;6.60;;;20.00;99.90;;;;;;6246320;28;20270;-72
2021/08/14 05:23:50;;;;;;;6.57;5.97;;;20.00;99.90;;;;;;6247962;28;20196;-72
2021/08/14 05:26:52;;;;;;;6.53;6.00;;;20.00;99.90;;;;;;6262565;28;20219;-72
2021/08/14 05:29:54;;;;;;;7.30;6.60;;;20.00;99.90;;;;;;6247719;28;20198;-72
2021/08/14 05:32:57;;;;;;;6.20;5.70;;;20.00;99.90;;;;;;6245974;28;20274;-72
2021/08/14 05:35:59;;;;;;;7.57;6.87;;;20.00;99.90;;;;;;6247709;28;20219;-72
2021/08/14 05:39:02;;;;;;;6.97;6.37;;;20.10;99.90;;;;;;6248315;28;20192;-72
2021/08/14 05:42:04;;;;;;;7.17;6.47;;;20.10;99.90;;;;;;6246716;28;20281;-71
2021/08/14 05:45:08;;;;;;;6.70;6.03;;;20.20;99.90;;;;;;6246024;28;20188;-72
2021/08/14 05:48:10;;;;;;;6.57;5.97;;;20.20;99.90;;;;;;6245357;28;20219;-72
2021/08/14 05:51:13;;;;;;;7.83;6.47;;;20.20;99.90;;;;;;6245516;28;20199;-72
2021/08/14 05:54:18;;;;;;;6.97;6.27;;;20.30;99.90;;;;;;6247541;28;20176;-72
2021/08/14 05:57:20;;;;;;;6.67;6.07;;;20.30;99.90;;;;;;6261877;28;20652;-71
2021/08/14 06:00:23;;;;;;;6.40;5.80;;;20.40;99.90;;;;;;6245544;28;20361;-71
2021/08/14 06:03:33;;;;;;;6.37;5.77;;;20.50;99.90;;;;;;6245283;28;20519;-71
2021/08/14 06:06:43;;;;;;;6.87;5.70;;;20.50;99.90;;;;;;6246659;28;20250;-71
2021/08/14 06:09:46;;;;;;;11.03;6.73;;;20.60;99.90;;;;;;6246442;28;20531;-71
2021/08/14 06:12:48;;;;;;;10.10;5.87;;;20.60;99.90;;;;;;6245621;28;20191;-71
2021/08/14 06:15:51;;;;;;;8.27;5.33;;;20.60;99.90;;;;;;6261661;28;20211;-70
2021/08/14 06:18:53;;;;;;;12.10;6.43;;;20.60;99.90;;;;;;6245151;28;20250;-71
2021/08/14 06:21:56;;;;;;;8.30;6.00;;;20.70;99.90;;;;;;6246649;28;20531;-72
2021/08/14 06:24:58;;;;;;;5.97;5.40;;;20.70;99.90;;;;;;6246221;28;20560;-72
2021/08/14 06:28:00;;;;;;;8.10;5.13;;;20.80;99.90;;;;;;6246368;28;20208;-71
2021/08/14 06:31:03;;;;;;;9.23;6.20;;;20.90;99.90;;;;;;6261612;28;20559;-72
2021/08/14 06:34:05;;;;;;;10.47;5.93;;;20.90;99.90;;;;;;6246115;28;20242;-71
2021/08/14 06:37:07;;;;;;;6.93;5.90;;;21.00;99.90;;;;;;6246190;28;20699;-72
2021/08/14 06:40:12;;;;;;;11.43;6.67;;;21.10;99.90;;;;;;6244644;28;20250;-71
2021/08/14 06:43:14;;;;;;;8.90;6.57;;;21.10;99.90;;;;;;6246107;28;20323;-72
2021/08/14 06:46:16;;;;;;;11.93;6.63;;;21.20;99.90;;;;;;6244938;28;20200;-71
2021/08/14 06:49:19;;;;;;;8.87;6.90;;;21.30;99.90;;;;;;6244310;28;20216;-71
2021/08/14 06:52:22;;;;;;;9.83;6.50;;;21.40;99.90;;;;;;6245741;28;20199;-72
2021/08/14 06:55:24;;;;;;;8.53;6.07;;;21.50;99.90;;;;;;6244457;28;20204;-72
2021/08/14 06:58:27;;;;;;;6.60;5.97;;;21.60;99.90;;;;;;6244385;28;20199;-72
2021/08/14 07:01:29;;;;;;;9.07;6.03;;;21.80;99.90;;;;;;6243671;28;20192;-72
2021/08/14 07:04:32;;;;;;;12.00;6.00;;;22.00;99.90;;;;;;6244448;28;20196;-72
2021/08/14 07:07:34;;;;;;;7.03;5.43;;;22.20;99.90;;;;;;6243905;28;20215;-72
2021/08/14 07:10:36;;;;;;;7.30;5.60;;;22.30;99.90;;;;;;6243583;28;20544;-72
2021/08/14 07:13:39;;;;;;;8.27;6.47;;;22.60;99.90;;;;;;6244136;28;20243;-73
2021/08/14 07:16:41;;;;;;;9.27;5.67;;;22.80;99.90;;;;;;6242709;28;20316;-72
2021/08/14 07:19:43;;;;;;;8.33;5.60;;;23.00;99.90;;;;;;6245185;28;20196;-73
2021/08/14 07:22:45;;;;;;;6.37;5.60;;;23.30;99.90;;;;;;6244999;28;20270;-72
2021/08/14 07:25:50;;;;;;;9.83;6.40;;;23.60;99.90;;;;;;6244772;28;20203;-72
2021/08/14 07:28:52;;;;;;;9.20;5.63;;;23.80;99.90;;;;;;6244916;28;20200;-72
2021/08/14 07:31:55;;;;;;;8.50;5.43;;;24.10;99.90;;;;;;6244523;28;20188;-72
2021/08/14 07:34:57;;;;;;;9.87;5.50;;;24.40;99.90;;;;;;6244927;28;20211;-72
2021/08/14 07:37:59;;;;;;;7.40;4.90;;;24.70;99.90;;;;;;6244860;28;20191;-73
2021/08/14 07:41:02;;;;;;;6.83;5.40;;;24.70;99.90;;;;;;6243205;28;20675;-73
2021/08/14 07:44:04;;;;;;;10.77;5.37;;;24.80;99.90;;;;;;6243751;28;20222;-72
2021/08/14 07:47:22;;;;;;;6.93;5.67;;;25.00;99.90;;;;;;6243131;28;20208;-72
2021/08/14 07:50:26;;;;;;;7.37;5.03;;;25.20;99.90;;;;;;6244603;28;20331;-72
2021/08/14 07:53:29;;;;;;;7.63;5.20;;;25.40;99.90;;;;;;6243234;28;20193;-72
2021/08/14 07:56:31;;;;;;;9.07;5.20;;;25.70;99.90;;;;;;6244927;28;20545;-72
2021/08/14 07:59:33;;;;;;;9.15;5.45;;;25.90;99.90;;;;;;6244509;28;20285;-72
2021/08/14 08:02:36;;;;;;;9.65;5.47;;;26.10;99.90;;;;;;6244208;28;20315;-72
2021/08/14 08:05:39;;;;;;;10.38;4.72;;;26.30;99.90;;;;;;6259729;28;20294;-72
2021/08/14 08:08:42;;;;;;;8.18;5.38;;;26.50;99.90;;;;;;6242979;28;20223;-71
2021/08/14 08:11:47;;;;;;;8.98;5.95;;;26.70;99.90;;;;;;6244385;28;20194;-71
2021/08/14 08:14:50;;;;;;;10.55;5.00;;;26.70;99.90;;;;;;6244552;28;20640;-72
2021/08/14 08:17:53;;;;;;;12.70;5.15;;;26.90;99.90;;;;;;6244028;28;20636;-72
2021/08/14 08:20:55;;;;;;;9.75;5.32;;;27.20;99.90;;;;;;6244245;28;20239;-72
2021/08/14 08:23:58;;;;;;;11.02;7.10;;;27.30;99.90;;;;;;6245589;28;20188;-71
2021/08/14 08:27:00;;;;;;;11.02;8.27;;;27.40;99.90;;;;;;6244301;28;20578;-72
2021/08/14 08:30:04;;;;;;;12.88;6.72;;;27.50;99.90;;;;;;6247835;28;20215;-73
2021/08/14 08:33:07;;;;;;;9.15;5.93;;;27.50;99.90;;;;;;6247498;28;20207;-73
2021/08/14 08:36:09;;;;;;;10.77;5.13;;;27.30;99.90;;;;;;6248787;28;20216;-73
2021/08/14 08:39:12;;;;;;;8.10;5.53;;;27.20;99.90;;;;;;6248593;28;20200;-73
2021/08/14 08:42:14;;;;;;;10.93;5.53;;;27.10;99.90;;;;;;6248878;28;20218;-72
2021/08/14 08:45:16;;;;;;;6.25;5.15;;;27.20;99.90;;;;;;6263444;28;20543;-73
2021/08/14 08:48:19;;;;;;;9.10;5.05;;;27.30;99.90;;;;;;6247599;28;20380;-73
2021/08/14 08:51:28;;;;;;;9.38;5.38;;;27.30;99.90;;;;;;6248508;28;20200;-72
2021/08/14 08:54:31;;;;;;;6.82;4.25;;;27.20;99.90;;;;;;6263626;28;20211;-72
2021/08/14 08:57:33;;;;;;;9.98;5.32;;;27.20;99.90;;;;;;6247021;28;20196;-73
2021/08/14 09:00:35;;;;;;;6.53;4.80;;;27.30;99.90;;;;;;6246536;28;20243;-72
2021/08/14 09:03:38;;;;;;;11.45;5.30;;;27.50;99.90;;;;;;6248285;28;20192;-71
2021/08/14 09:06:42;;;;;;;10.40;5.53;;;27.90;99.90;;;;;;6248146;28;20203;-72
2021/08/14 09:09:44;;;;;;;7.80;5.20;;;28.10;99.90;;;;;;6246486;28;20215;-71
2021/08/14 09:12:47;;;;;;;9.27;5.20;;;28.20;99.90;;;;;;6246839;28;20215;-71
2021/08/14 09:15:50;;;;;;;9.38;4.90;;;28.20;99.90;;;;;;6246413;28;20199;-71
2021/08/14 09:18:57;;;;;;;9.85;5.28;;;28.50;99.90;;;;;;6248057;28;20279;-71
2021/08/14 09:22:14;;;;;;;7.47;5.32;;;28.60;99.90;;;;;;6246437;28;20222;-73
2021/08/14 09:25:19;;;;;;;7.75;5.20;;;28.50;99.90;;;;;;6247943;28;20189;-71
2021/08/14 09:28:50;;;;;;;9.18;4.93;;;28.80;99.90;;;;;;6246501;28;20219;-71
2021/08/14 09:31:54;;;;;;;8.35;4.97;;;29.30;99.90;;;;;;6220898;28;20203;-72
2021/08/14 09:34:58;;;;;;;7.00;4.85;;;30.10;99.90;;;;;;6244732;28;20228;-72
2021/08/14 09:38:09;;;;;;;7.10;5.32;;;30.60;99.90;;;;;;6244198;28;20266;-73
2021/08/14 09:41:16;;;;;;;8.13;5.63;;;30.90;99.90;;;;;;6243381;28;20200;-72
2021/08/14 09:44:18;;;;;;;8.75;4.93;;;30.80;99.90;;;;;;6244058;28;20206;-72
2021/08/14 09:47:33;;;;;;;5.25;4.53;;;30.80;99.90;;;;;;6243672;28;20196;-69
2021/08/14 09:50:37;;;;;;;9.32;4.80;;;30.90;99.90;;;;;;6243783;28;20664;-73
2021/08/14 09:53:39;;;;;;;7.07;5.60;;;31.00;99.90;;;;;;6226929;28;20613;-71
2021/08/14 09:56:42;;;;;;;7.80;5.63;;;30.70;99.90;;;;;;6244281;28;20289;-71
2021/08/14 09:59:45;;;;;;;12.65;5.18;;;30.20;99.90;;;;;;6227793;28;20188;-72
2021/08/14 10:02:49;;;;;;;11.52;5.95;;;30.00;99.90;;;;;;6228366;28;20222;-71
2021/08/14 10:05:54;;;;;;;8.52;4.90;;;30.10;99.90;;;;;;6245487;28;20231;-72
2021/08/14 10:08:57;;;;;;;6.68;4.93;;;30.50;99.90;;;;;;6234443;28;20230;-71
2021/08/14 10:12:05;;;;;;;7.70;4.95;;;31.00;99.90;;;;;;6246828;28;20184;-72
2021/08/14 10:15:08;;;;;;;9.70;4.70;;;31.60;99.90;;;;;;6261568;28;20196;-71
2021/08/14 10:18:14;;;;;;;11.23;5.45;;;32.10;98.50;;;;;;6246092;28;20228;-72
2021/08/14 10:21:17;;;;;;;6.40;4.68;;;32.50;98.30;;;;;;6246227;28;20200;-71
2021/08/14 10:24:20;;;;;;;7.43;4.75;;;32.80;97.50;;;;;;6246041;28;20200;-72
2021/08/14 10:27:23;;;;;;;9.45;4.85;;;33.00;91.50;;;;;;6246488;28;20199;-72
2021/08/14 10:30:48;;;;;;;8.88;4.50;;;33.20;91.50;;;;;;6244588;28;20212;-71
2021/08/14 10:33:51;;;;;;;8.57;5.10;;;33.60;90.90;;;;;;6245266;28;20208;-72
2021/08/14 10:36:53;;;;;;;7.20;4.18;;;33.70;91.20;;;;;;6245061;28;20214;-71
2021/08/14 10:39:56;;;;;;;8.45;4.45;;;33.90;91.50;;;;;;6246295;28;20195;-71
2021/08/14 10:42:58;;;;;;;7.88;4.10;;;34.20;91.40;;;;;;6244785;28;20219;-72
2021/08/14 10:46:39;;;;;;;4.95;3.75;;;34.20;86.80;;;;;;6261078;28;20223;-71
2021/08/14 10:49:46;;;;;;;5.53;3.65;;;34.00;83.30;;;;;;6245856;28;20283;-71
2021/08/14 10:52:49;;;;;;;6.18;3.58;;;34.20;81.50;;;;;;6260681;28;20322;-72
2021/08/14 10:55:55;;;;;;;6.95;3.67;;;34.60;80.80;;;;;;6246343;28;20317;-73
2021/08/14 10:58:57;;;;;;;6.00;3.53;;;34.70;72.60;;;;;;6244051;28;20196;-71
2021/08/14 11:01:59;;;;;;;8.13;4.18;;;34.60;70.00;;;;;;6245951;28;20200;-72
2021/08/14 11:05:02;;;;;;;8.38;3.55;;;35.00;72.90;;;;;;6245689;28;20202;-71
2021/08/14 11:08:23;;;;;;;7.32;3.78;;;35.30;68.80;;;;;;6245269;28;20196;-70
2021/08/14 11:11:39;;;;;;;7.15;3.63;;;35.30;67.30;;;;;;6260988;28;20647;-71
2021/08/14 11:14:46;;;;;;;6.93;3.90;;;35.20;67.70;;;;;;6244894;28;20192;-71
2021/08/14 11:17:57;;;;;;;5.78;3.60;;;35.30;67.60;;;;;;6243920;28;20224;-72
2021/08/14 11:21:07;;;;;;;8.43;4.13;;;35.60;66.10;;;;;;6244936;28;20204;-71
2021/08/14 11:24:30;;;;;;;6.75;3.95;;;35.90;60.20;;;;;;6245357;28;20883;-71
2021/08/14 11:27:34;;;;;;;6.15;4.05;;;36.00;64.30;;;;;;6244032;28;20565;-71
2021/08/14 11:30:39;;;;;;;10.07;4.60;;;36.10;62.00;;;;;;6244613;28;20585;-71
2021/08/14 11:33:42;;;;;;;7.72;4.43;;;35.90;58.30;;;;;;6260627;28;20230;-71
2021/08/14 11:36:44;;;;;;;8.07;4.38;;;36.00;59.20;;;;;;6244701;28;20208;-71
2021/08/14 11:39:47;;;;;;;7.55;4.30;;;36.10;57.60;;;;;;6245088;28;20200;-71
2021/08/14 11:42:54;;;;;;;7.47;4.18;;;36.30;58.40;;;;;;6244398;28;20188;-73
2021/08/14 11:46:04;;;;;;;9.32;3.95;;;36.60;59.50;;;;;;6245135;28;20196;-71
2021/08/14 11:49:06;;;;;;;11.85;4.43;;;36.70;59.10;;;;;;6244866;28;20622;-72
2021/08/14 11:52:08;;;;;;;8.73;4.18;;;36.90;57.90;;;;;;6244526;28;20192;-72
2021/08/14 11:55:11;;;;;;;9.05;4.32;;;37.10;55.90;;;;;;6245034;28;20671;-71
2021/08/14 11:58:14;;;;;;;6.53;4.22;;;37.30;54.80;;;;;;6244426;28;20192;-72
2021/08/14 12:01:16;;;;;;;7.85;4.30;;;37.30;53.30;;;;;;6259943;28;20656;-71
2021/08/14 12:04:19;;;;;;;6.38;4.20;;;37.30;53.90;;;;;;6247607;28;20214;-71
2021/08/14 12:07:22;;;;;;;6.75;4.53;;;37.60;54.10;;;;;;6264697;28;20188;-71
2021/08/14 12:10:26;;;;;;;6.72;4.38;;;37.70;52.90;;;;;;6248338;28;20675;-72
2021/08/14 12:13:29;;;;;;;7.18;4.50;;;37.90;51.40;;;;;;6248040;28;20189;-71
2021/08/14 12:16:39;;;;;;;7.88;4.68;;;38.00;53.70;;;;;;6249411;28;20314;-72
2021/08/14 12:19:56;;;;;;;6.85;4.40;;;38.20;54.60;;;;;;6247865;28;20254;-72
2021/08/14 12:23:24;;;;;;;11.68;4.55;;;38.40;53.90;;;;;;6264670;28;20201;-72
2021/08/14 12:26:27;;;;;;;8.02;4.28;;;38.30;51.50;;;;;;6249123;28;20196;-71
2021/08/14 12:29:29;;;;;;;7.10;4.68;;;38.50;52.40;;;;;;6248871;28;20208;-71
2021/08/14 12:32:31;;;;;;;8.13;4.28;;;38.70;53.10;;;;;;6251650;28;20192;-71
2021/08/14 12:35:34;;;;;;;9.23;5.15;;;38.70;53.10;;;;;;6263917;28;20215;-72
2021/08/14 12:38:48;;;;;;;10.30;4.72;;;38.80;52.30;;;;;;6249029;28;20188;-71
2021/08/14 12:41:50;;;;;;;12.48;4.93;;;38.80;52.50;;;;;;6263867;28;20690;-71
2021/08/14 12:44:53;;;;;;;8.02;4.38;;;38.80;53.60;;;;;;6248956;28;20196;-72
2021/08/14 12:48:09;;;;;;;6.78;4.93;;;38.80;54.00;;;;;;6247602;28;20192;-71
2021/08/14 12:51:12;;;;;;;7.63;4.38;;;38.90;50.70;;;;;;6246988;28;20189;-71
2021/08/14 12:54:14;;;;;;;10.85;5.50;;;38.80;52.00;;;;;;6248706;28;20215;-71
2021/08/14 12:57:16;;;;;;;7.95;4.90;;;38.90;50.60;;;;;;6248165;28;20201;-71
2021/08/14 13:00:18;;;;;;;7.85;4.93;;;39.00;50.40;;;;;;6247286;28;20200;-71
2021/08/14 13:03:21;;;;;;;7.53;4.68;;;39.20;51.30;;;;;;6248357;28;20650;-72
2021/08/14 13:06:24;;;;;;;12.52;4.97;;;39.10;49.70;;;;;;6248275;28;20534;-71
2021/08/14 13:09:27;;;;;;;8.40;4.82;;;39.10;51.30;;;;;;6248254;28;20281;-72
2021/08/14 13:12:30;;;;;;;7.85;5.15;;;39.10;50.20;;;;;;6263202;28;20188;-71
2021/08/14 13:15:32;;;;;;;9.20;5.18;;;39.20;50.90;;;;;;6246962;28;20333;-71
2021/08/14 13:18:34;;;;;;;9.85;5.00;;;39.50;50.70;;;;;;6247993;28;20216;-72
2021/08/14 13:21:38;;;;;;;8.50;4.97;;;39.60;50.10;;;;;;6247655;28;20196;-71
2021/08/14 13:24:40;;;;;;;7.00;4.40;;;39.60;50.00;;;;;;6248549;28;20202;-72
2021/08/14 13:27:44;;;;;;;8.70;4.95;;;39.90;48.90;;;;;;6247724;28;20187;-71
2021/08/14 13:30:50;;;;;;;11.07;4.80;;;40.20;49.50;;;;;;6246304;28;20220;-71
2021/08/14 13:33:52;;;;;;;7.05;4.65;;;40.20;48.60;;;;;;6246397;28;20192;-72
2021/08/14 13:36:54;;;;;;;7.20;4.75;;;40.40;47.70;;;;;;6262927;28;20332;-71
2021/08/14 13:39:56;;;;;;;9.77;5.28;;;40.60;48.10;;;;;;6246115;28;20184;-72
2021/08/14 13:42:59;;;;;;;7.82;4.95;;;40.70;47.80;;;;;;6247208;28;20191;-71
2021/08/14 13:46:02;;;;;;;7.18;5.00;;;40.90;46.00;;;;;;6247527;28;20203;-71
2021/08/14 13:49:04;;;;;;;8.55;4.82;;;41.00;45.70;;;;;;6247031;28;20215;-70
2021/08/14 13:52:07;;;;;;;10.82;5.28;;;40.60;47.40;;;;;;6247193;28;20192;-71
2021/08/14 13:55:09;;;;;;;7.35;4.53;;;40.30;47.50;;;;;;6247264;28;20646;-70
2021/08/14 13:58:12;;;;;;;10.93;5.15;;;40.10;48.30;;;;;;6246832;28;20203;-71
2021/08/14 14:01:14;;;;;;;7.85;4.50;;;39.60;50.40;;;;;;6247446;28;20199;-73
2021/08/14 14:04:17;;;;;;;13.43;5.30;;;39.30;49.90;;;;;;6245575;28;20191;-71
2021/08/14 14:07:20;;;;;;;12.45;4.78;;;39.50;50.60;;;;;;6246959;28;20231;-71
2021/08/14 14:10:22;;;;;;;8.63;4.97;;;40.10;50.70;;;;;;6262276;28;20230;-71
2021/08/14 14:13:27;;;;;;;11.50;5.28;;;40.90;48.60;;;;;;6245028;28;20298;-71
2021/08/14 14:16:29;;;;;;;9.73;5.10;;;41.40;46.30;;;;;;6261920;28;20226;-71
2021/08/14 14:19:32;;;;;;;16.50;5.22;;;41.90;46.10;;;;;;6246495;28;20196;-72
2021/08/14 14:22:34;;;;;;;12.23;5.40;;;42.30;44.10;;;;;;6246596;28;20258;-72
2021/08/14 14:25:36;;;;;;;7.43;4.97;;;42.50;44.90;;;;;;6246100;28;20281;-71
2021/08/14 14:28:39;;;;;;;10.52;5.72;;;42.80;42.10;;;;;;6245250;28;20192;-71
2021/08/14 14:31:41;;;;;;;14.90;5.13;;;43.00;43.10;;;;;;6245345;28;20238;-72
2021/08/14 14:34:43;;;;;;;13.80;5.15;;;43.30;42.60;;;;;;6244811;28;20211;-72
2021/08/14 14:37:46;;;;;;;11.43;4.95;;;43.40;43.20;;;;;;6244826;28;20545;-71
2021/08/14 14:40:48;;;;;;;8.82;4.72;;;43.30;41.70;;;;;;6260885;28;20294;-71
2021/08/14 14:43:51;;;;;;;8.20;4.40;;;43.30;40.50;;;;;;6244998;28;20203;-72
2021/08/14 14:46:53;;;;;;;9.30;5.03;;;43.40;39.70;;;;;;6246050;28;20329;-72
2021/08/14 14:49:55;;;;;;;10.52;5.22;;;43.50;38.00;;;;;;6244188;28;20208;-72
2021/08/14 14:52:58;;;;;;;10.07;4.80;;;43.50;37.40;;;;;;6245802;28;20267;-73
2021/08/14 14:56:00;;;;;;;8.25;5.13;;;43.80;37.00;;;;;;6260917;28;20279;-71
2021/08/14 14:59:02;;;;;;;9.20;4.65;;;43.90;38.70;;;;;;6245948;28;20188;-72
2021/08/14 15:02:05;;;;;;;11.45;4.88;;;44.10;38.30;;;;;;6244547;28;20726;-72
2021/08/14 15:05:08;;;;;;;11.57;4.75;;;44.10;39.40;;;;;;6244172;28;20612;-71
2021/08/14 15:08:10;;;;;;;10.68;5.18;;;43.90;41.20;;;;;;6245565;28;20349;-72
2021/08/14 15:11:14;;;;;;;8.57;4.18;;;43.70;39.90;;;;;;6243810;28;20224;-72
2021/08/14 15:14:16;;;;;;;7.55;4.75;;;43.70;39.00;;;;;;6260816;28;20655;-71
2021/08/14 15:17:18;;;;;;;9.85;5.18;;;43.50;39.60;;;;;;6243749;28;20679;-71
2021/08/14 15:20:20;;;;;;;10.95;4.78;;;43.50;39.50;;;;;;6245419;28;20211;-72
2021/08/14 15:23:23;;;;;;;10.20;4.70;;;43.50;38.20;;;;;;6245639;28;20192;-71
2021/08/14 15:26:25;;;;;;;9.00;4.55;;;43.20;41.50;;;;;;6245011;28;20191;-72
2021/08/14 15:29:28;;;;;;;11.50;4.35;;;42.90;42.30;;;;;;6245143;28;20212;-72
2021/08/14 15:32:30;;;;;;;11.13;4.63;;;42.60;43.50;;;;;;6241093;28;20763;-71
2021/08/14 15:35:33;;;;;;;8.80;4.60;;;42.40;43.90;;;;;;6260211;28;20223;-72
2021/08/14 15:38:35;;;;;;;6.47;4.22;;;42.30;40.30;;;;;;6259735;28;20204;-71
2021/08/14 15:41:37;;;;;;;10.32;5.00;;;42.20;39.90;;;;;;6243358;28;20202;-72
2021/08/14 15:44:41;;;;;;;8.45;5.05;;;42.10;39.60;;;;;;6244926;28;20239;-72
2021/08/14 15:47:47;;;;;;;11.02;4.80;;;42.10;41.90;;;;;;6243471;28;20698;-72
2021/08/14 15:50:49;;;;;;;10.43;5.07;;;42.00;43.00;;;;;;6243780;28;20303;-71